Time;durP1;ratioP1;P1;durP2;ratioP2;P2;SDS_P1;SDS_P2;PMS_P1;PMS_P2;Temp;Humidity;BMP_temperature;BMP_pressure;BME280_temperature;BME280_humidity;BME280_pressure;Samples;Min_cycle;Max_cycle;Signal;HPM_P1;HPM_P2
2022/12/07 00:01:47;;;;;;;9.98;2.10;;;;;;;;;;5046839;28;20555;-70
2022/12/07 00:04:14;;;;;;;9.25;2.10;;;;;;;;;;5031355;28;20431;-69
2022/12/07 00:06:45;;;;;;;10.02;2.00;;;;;;;;;;5042894;28;20425;-70
2022/12/07 00:09:12;;;;;;;8.83;1.97;;;;;;;;;;5047410;28;20743;-70
2022/12/07 00:11:39;;;;;;;10.07;1.67;;;;;;;;;;5046406;28;20535;-70
2022/12/07 00:14:10;;;;;;;8.77;2.00;;;;;;;;;;5030076;28;20955;-70
2022/12/07 00:16:36;;;;;;;10.40;2.20;;;;;;;;;;5039477;28;20430;-70
2022/12/07 00:19:03;;;;;;;9.43;1.90;;;;;;;;;;5040025;28;20793;-70
2022/12/07 00:21:33;;;;;;;10.00;2.00;;;;;;;;;;5044497;28;20453;-70
2022/12/07 00:24:00;;;;;;;12.05;2.20;;;;;;;;;;5046604;28;20428;-70
2022/12/07 00:26:28;;;;;;;10.95;2.25;;;;;;;;;;5049879;28;20417;-70
2022/12/07 00:28:55;;;;;;;12.73;2.50;;;;;;;;;;5048543;28;20924;-70
2022/12/07 00:31:22;;;;;;;10.33;1.90;;;;;;;;;;5048644;28;20421;-70
2022/12/07 00:33:48;;;;;;;7.78;1.80;;;;;;;;;;5047984;28;20425;-70
2022/12/07 00:36:19;;;;;;;6.90;1.90;;;;;;;;;;5035353;28;20417;-70
2022/12/07 00:38:45;;;;;;;8.53;2.27;;;;;;;;;;5050570;28;20500;-70
2022/12/07 00:41:12;;;;;;;8.18;1.95;;;;;;;;;;5044699;28;20506;-70
2022/12/07 00:43:39;;;;;;;8.15;1.88;;;;;;;;;;5047943;28;20433;-70
2022/12/07 00:46:05;;;;;;;9.20;2.10;;;;;;;;;;5048691;28;20422;-70
2022/12/07 00:48:31;;;;;;;9.32;2.33;;;;;;;;;;5031911;28;21423;-71
2022/12/07 00:50:57;;;;;;;10.85;2.20;;;;;;;;;;5028433;28;20432;-71
2022/12/07 00:53:24;;;;;;;10.55;1.92;;;;;;;;;;5043841;28;20421;-71
2022/12/07 00:55:50;;;;;;;7.80;1.60;;;;;;;;;;5048422;28;20940;-71
2022/12/07 00:58:16;;;;;;;9.95;1.85;;;;;;;;;;5032113;28;20421;-71
2022/12/07 01:00:43;;;;;;;9.90;1.80;;;;;;;;;;5049256;28;20433;-71
2022/12/07 01:03:10;;;;;;;8.43;1.90;;;;;;;;;;5045961;28;20417;-70
2022/12/07 01:05:36;;;;;;;10.30;1.92;;;;;;;;;;5048312;28;20478;-71
2022/12/07 01:08:02;;;;;;;8.75;1.35;;;;;;;;;;5017769;28;20462;-71
2022/12/07 01:10:30;;;;;;;10.02;1.92;;;;;;;;;;5035225;28;20920;-71
2022/12/07 01:12:56;;;;;;;10.02;1.73;;;;;;;;;;5046526;28;20913;-71
2022/12/07 01:15:22;;;;;;;5.25;1.40;;;;;;;;;;5031828;28;20425;-70
2022/12/07 01:17:49;;;;;;;11.32;1.67;;;;;;;;;;5045141;28;20443;-71
2022/12/07 01:20:15;;;;;;;8.35;1.60;;;;;;;;;;5046833;28;20947;-71
2022/12/07 01:22:42;;;;;;;8.15;1.67;;;;;;;;;;5044494;28;20908;-71
2022/12/07 01:25:08;;;;;;;10.02;1.65;;;;;;;;;;5049251;28;20425;-71
2022/12/07 01:27:35;;;;;;;9.55;1.90;;;;;;;;;;5037950;28;20418;-71
2022/12/07 01:30:01;;;;;;;10.10;1.70;;;;;;;;;;5019585;28;20429;-71
2022/12/07 01:32:27;;;;;;;8.75;1.55;;;;;;;;;;5027506;28;20427;-71
2022/12/07 01:34:54;;;;;;;8.18;1.63;;;;;;;;;;5048706;28;20425;-71
2022/12/07 01:37:20;;;;;;;8.23;1.70;;;;;;;;;;5018664;28;20421;-71
2022/12/07 01:39:48;;;;;;;8.43;1.40;;;;;;;;;;5048795;28;20550;-71
2022/12/07 01:42:15;;;;;;;8.60;1.63;;;;;;;;;;5044974;28;20458;-71
2022/12/07 01:45:17;;;;;;;7.85;1.55;;;4.60;99.90;;;;;;5045077;28;20424;-71
2022/12/07 01:47:47;;;;;;;7.68;1.65;;;;;;;;;;5038795;28;20431;-71
2022/12/07 01:50:13;;;;;;;8.73;1.90;;;;;;;;;;5027521;28;20423;-71
2022/12/07 01:52:40;;;;;;;13.65;2.10;;;;;;;;;;4994151;28;20418;-71
2022/12/07 01:55:11;;;;;;;8.13;1.55;;;;;;;;;;5027647;28;20419;-71
2022/12/07 01:57:39;;;;;;;8.48;1.67;;;;;;;;;;5029985;28;20407;-71
2022/12/07 02:00:07;;;;;;;8.38;1.38;;;;;;;;;;5029883;28;20407;-71
2022/12/07 02:02:35;;;;;;;8.77;2.00;;;;;;;;;;5028140;28;20418;-71
2022/12/07 02:05:02;;;;;;;8.02;1.20;;;;;;;;;;5031525;28;20469;-71
2022/12/07 02:07:29;;;;;;;6.78;1.92;;;;;;;;;;5031029;28;20425;-71
2022/12/07 02:09:55;;;;;;;8.00;1.40;;;;;;;;;;5021520;28;20768;-71
2022/12/07 02:12:21;;;;;;;8.32;1.60;;;;;;;;;;5032607;28;20778;-71
2022/12/07 02:14:47;;;;;;;7.97;1.40;;;;;;;;;;5019801;28;20435;-71
2022/12/07 02:17:14;;;;;;;12.83;1.60;;;;;;;;;;5026687;28;20419;-70
2022/12/07 02:19:51;;;;;;;7.95;1.30;;;;;;;;;;5032012;28;20831;-70
2022/12/07 02:22:17;;;;;;;10.30;1.80;;;;;;;;;;5028973;28;20427;-70
2022/12/07 02:24:46;;;;;;;8.63;1.30;;;;;;;;;;5015234;28;20418;-70
2022/12/07 02:27:26;;;;;;;10.23;1.60;;;;;;;;;;5030317;28;20513;-70
2022/12/07 02:30:31;;;;;;;9.73;1.42;;;;;;;;;;5014939;28;20905;-70
2022/12/07 02:32:57;;;;;;;8.75;1.65;;;;;;;;;;4955079;28;20432;-71
2022/12/07 02:35:33;;;;;;;6.32;1.50;;;;;;;;;;4957252;28;20780;-70
2022/12/07 02:38:26;;;;;;;10.63;1.48;;;4.70;99.90;;;;;;4991257;28;20433;-70
2022/12/07 02:40:58;;;;;;;8.15;1.52;;;;;;;;;;5025234;28;20856;-70
2022/12/07 02:43:26;;;;;;;6.30;1.30;;;;;;;;;;5023279;28;20429;-71
2022/12/07 02:45:54;;;;;;;8.48;1.60;;;;;;;;;;5029342;28;20450;-71
2022/12/07 02:48:21;;;;;;;7.35;1.40;;;;;;;;;;5026476;28;20429;-70
2022/12/07 02:50:51;;;;;;;11.02;1.63;;;;;;;;;;5013515;28;20929;-71
2022/12/07 02:53:35;;;;;;;6.78;1.60;;;;;;;;;;5030717;28;20430;-71
2022/12/07 02:56:25;;;;;;;7.25;1.40;;;;;;;;;;5024196;28;20515;-79
2022/12/07 02:59:11;;;;;;;8.77;1.45;;;;;;;;;;4972818;28;20419;-79
2022/12/07 03:01:41;;;;;;;9.02;1.77;;;;;;;;;;5011721;28;20429;-79
2022/12/07 03:04:10;;;;;;;10.75;1.75;;;;;;;;;;5032850;28;20502;-79
2022/12/07 03:06:43;;;;;;;11.20;1.67;;;;;;;;;;5032702;28;20898;-79
2022/12/07 03:09:19;;;;;;;8.75;1.50;;;;;;;;;;5031077;28;20509;-79
2022/12/07 03:11:51;;;;;;;8.43;1.80;;;;;;;;;;5024035;28;20460;-79
2022/12/07 03:14:17;;;;;;;9.45;1.50;;;;;;;;;;5022251;28;20945;-79
2022/12/07 03:16:46;;;;;;;11.05;1.58;;;;;;;;;;5031779;28;20787;-79
2022/12/07 03:19:19;;;;;;;6.63;1.23;;;;;;;;;;5032415;28;20414;-79
2022/12/07 03:21:48;;;;;;;9.80;1.70;;;;;;;;;;5031778;28;20450;-79
2022/12/07 03:24:16;;;;;;;8.07;1.50;;;;;;;;;;5032375;28;20724;-79
2022/12/07 03:26:45;;;;;;;7.13;1.38;;;;;;;;;;5028346;28;20485;-79
2022/12/07 03:29:19;;;;;;;8.85;1.55;;;;;;;;;;5030309;28;20426;-80
2022/12/07 03:31:47;;;;;;;9.90;1.55;;;;;;;;;;5021376;28;20433;-76
2022/12/07 03:34:18;;;;;;;9.13;1.40;;;;;;;;;;5014844;28;20945;-79
2022/12/07 03:37:01;;;;;;;9.90;1.60;;;;;;;;;;5032243;28;20407;-78
2022/12/07 03:39:34;;;;;;;11.47;1.83;;;;;;;;;;5012775;28;20980;-78
2022/12/07 03:42:01;;;;;;;7.65;1.45;;;;;;;;;;5031075;28;21064;-78
2022/12/07 03:44:28;;;;;;;7.93;1.65;;;;;;;;;;5030935;28;20497;-78
2022/12/07 03:46:57;;;;;;;8.02;1.60;;;;;;;;;;5030017;28;20418;-78
2022/12/07 03:49:28;;;;;;;10.93;1.90;;;;;;;;;;5029842;28;20477;-78
2022/12/07 03:52:07;;;;;;;8.27;1.83;;;;;;;;;;5030785;28;20492;-78
2022/12/07 03:54:35;;;;;;;6.43;1.55;;;;;;;;;;5009582;28;20454;-79
2022/12/07 03:57:02;;;;;;;8.35;1.65;;;;;;;;;;5010618;28;20427;-79
2022/12/07 03:59:28;;;;;;;10.02;1.80;;;;;;;;;;5026456;28;20415;-78
2022/12/07 04:01:56;;;;;;;9.07;1.70;;;;;;;;;;5026695;28;20923;-79
2022/12/07 04:04:22;;;;;;;8.05;1.65;;;;;;;;;;5023011;28;20823;-78
2022/12/07 04:06:48;;;;;;;11.05;1.95;;;;;;;;;;5014157;28;20493;-79
2022/12/07 04:09:14;;;;;;;10.27;1.60;;;;;;;;;;5027114;28;20419;-79
2022/12/07 04:11:41;;;;;;;11.35;1.48;;;;;;;;;;4997191;28;20469;-79
2022/12/07 04:14:19;;;;;;;8.60;1.50;;;;;;;;;;4982987;28;20436;-77
2022/12/07 04:16:46;;;;;;;7.80;1.40;;;;;;;;;;5021536;28;20481;-78
2022/12/07 04:19:12;;;;;;;8.95;1.85;;;;;;;;;;5030169;28;20426;-78
2022/12/07 04:21:38;;;;;;;6.65;1.45;;;;;;;;;;5025521;28;20520;-78
2022/12/07 04:24:05;;;;;;;10.93;1.88;;;;;;;;;;5013823;28;20431;-79
2022/12/07 04:26:31;;;;;;;10.20;1.92;;;;;;;;;;5015464;28;20509;-79
2022/12/07 04:28:57;;;;;;;9.32;1.80;;;;;;;;;;5030599;28;20411;-79
2022/12/07 04:31:23;;;;;;;6.30;1.63;;;;;;;;;;5048898;28;20498;-78
2022/12/07 04:33:49;;;;;;;12.63;1.80;;;;;;;;;;5053162;28;20453;-78
2022/12/07 04:36:19;;;;;;;9.10;1.58;;;;;;;;;;5036004;28;20554;-78
2022/12/07 04:38:45;;;;;;;10.57;1.60;;;;;;;;;;5027306;28;20423;-79
2022/12/07 04:41:11;;;;;;;11.98;1.63;;;;;;;;;;5034457;28;20424;-78
2022/12/07 04:43:38;;;;;;;11.80;1.60;;;;;;;;;;5034834;28;20824;-78
2022/12/07 04:46:04;;;;;;;11.30;1.75;;;;;;;;;;5044324;28;20410;-79
2022/12/07 04:48:30;;;;;;;11.52;1.40;;;;;;;;;;5036142;28;20442;-79
2022/12/07 04:50:56;;;;;;;10.85;1.70;;;;;;;;;;5034955;28;20829;-78
2022/12/07 04:53:23;;;;;;;10.00;1.77;;;;;;;;;;5033453;28;20427;-78
2022/12/07 04:55:49;;;;;;;11.82;1.60;;;;;;;;;;5025785;28;20416;-78
2022/12/07 04:58:15;;;;;;;13.23;1.70;;;;;;;;;;5028164;28;20894;-78
2022/12/07 05:00:41;;;;;;;9.60;1.77;;;;;;;;;;5028210;28;20422;-78
2022/12/07 05:03:07;;;;;;;10.05;1.80;;;;;;;;;;5030333;28;20474;-79
2022/12/07 05:05:33;;;;;;;11.33;2.00;;;;;;;;;;5029933;28;20430;-79
2022/12/07 05:07:59;;;;;;;13.18;2.03;;;;;;;;;;5030446;28;20458;-79
2022/12/07 05:10:25;;;;;;;11.35;1.85;;;;;;;;;;5009026;28;20428;-79
2022/12/07 05:12:52;;;;;;;12.32;1.80;;;;;;;;;;5019971;28;20510;-79
2022/12/07 05:15:18;;;;;;;9.25;1.88;;;;;;;;;;5009911;28;21079;-80
2022/12/07 05:17:44;;;;;;;14.57;2.08;;;;;;;;;;5027473;28;20420;-80
2022/12/07 05:20:12;;;;;;;13.98;2.10;;;;;;;;;;5027930;28;20430;-79
2022/12/07 05:22:39;;;;;;;9.95;1.90;;;;;;;;;;5029695;28;20426;-79
2022/12/07 05:25:05;;;;;;;9.88;1.75;;;;;;;;;;5027362;28;20572;-80
2022/12/07 05:27:31;;;;;;;14.80;1.92;;;;;;;;;;5024883;28;20435;-79
2022/12/07 05:29:57;;;;;;;7.65;1.60;;;;;;;;;;5029651;28;20423;-79
2022/12/07 05:32:23;;;;;;;11.35;1.98;;;;;;;;;;5026528;28;20427;-79
2022/12/07 05:34:49;;;;;;;10.52;1.58;;;;;;;;;;5013714;28;20423;-79
2022/12/07 05:37:18;;;;;;;12.25;1.40;;;;;;;;;;5013133;28;20442;-79
2022/12/07 05:39:44;;;;;;;11.85;1.90;;;;;;;;;;5033701;28;20414;-79
2022/12/07 05:42:14;;;;;;;9.68;1.60;;;;;;;;;;5015379;28;20429;-80
2022/12/07 05:44:45;;;;;;;9.45;1.67;;;;;;;;;;5016438;28;20437;-80
2022/12/07 05:47:11;;;;;;;10.85;1.80;;;;;;;;;;5031341;28;20430;-78
2022/12/07 05:49:37;;;;;;;7.93;1.60;;;;;;;;;;5032622;28;20433;-80
2022/12/07 05:52:04;;;;;;;13.15;1.77;;;;;;;;;;5032299;28;20438;-80
2022/12/07 05:54:30;;;;;;;10.30;2.10;;;;;;;;;;5032018;28;20427;-79
2022/12/07 05:56:56;;;;;;;7.38;1.50;;;;;;;;;;5028654;28;20433;-79
2022/12/07 05:59:22;;;;;;;9.55;1.65;;;;;;;;;;5029919;28;20437;-79
2022/12/07 06:01:52;;;;;;;7.28;1.77;;;;;;;;;;5029562;28;20415;-80
2022/12/07 06:04:19;;;;;;;3.60;1.08;;;;;;;;;;5002991;28;20424;-79
2022/12/07 06:06:45;;;;;;;8.77;1.58;;;;;;;;;;5028975;28;20420;-80
2022/12/07 06:09:12;;;;;;;8.35;1.70;;;;;;;;;;5021495;28;20450;-79
2022/12/07 06:14:23;;;;;;;8.70;1.60;;;;;;;;;;5021222;28;20907;-71
2022/12/07 06:16:50;;;;;;;8.60;1.60;;;;;;;;;;5008021;28;20787;-71
2022/12/07 06:19:16;;;;;;;8.98;1.77;;;;;;;;;;5010901;28;20493;-71
2022/12/07 06:21:42;;;;;;;8.32;1.80;;;;;;;;;;5031218;28;20403;-72
2022/12/07 06:24:09;;;;;;;11.90;1.70;;;;;;;;;;5030376;28;20950;-73
2022/12/07 06:26:35;;;;;;;8.73;2.08;;;;;;;;;;5007841;28;20434;-73
2022/12/07 06:29:01;;;;;;;11.63;1.90;;;;;;;;;;5022347;28;20426;-73
2022/12/07 06:31:27;;;;;;;9.82;1.95;;;;;;;;;;5011958;28;20474;-73
2022/12/07 06:34:04;;;;;;;12.40;1.90;;;;;;;;;;5027769;28;20467;-73
2022/12/07 06:36:31;;;;;;;7.75;1.80;;;;;;;;;;5012143;28;20768;-72
2022/12/07 06:38:57;;;;;;;10.20;2.17;;;;;;;;;;5027046;28;20938;-71
2022/12/07 06:41:23;;;;;;;8.75;2.35;;;;;;;;;;5025475;28;20438;-71
2022/12/07 06:43:50;;;;;;;11.25;1.90;;;;;;;;;;5005657;28;20436;-71
2022/12/07 06:46:16;;;;;;;7.75;1.77;;;;;;;;;;5023846;28;20454;-70
2022/12/07 06:48:43;;;;;;;10.03;1.87;;;;;;;;;;5022588;28;20440;-71
2022/12/07 06:51:09;;;;;;;9.15;2.00;;;;;;;;;;5033457;28;20427;-71
2022/12/07 06:53:36;;;;;;;8.75;1.70;;;;;;;;;;5031623;28;20458;-71
2022/12/07 06:56:02;;;;;;;10.65;2.10;;;;;;;;;;5013652;28;20494;-71
2022/12/07 06:58:28;;;;;;;15.02;3.30;;;;;;;;;;5028957;28;20481;-71
2022/12/07 07:00:54;;;;;;;8.90;1.67;;;;;;;;;;5006027;28;20494;-72
2022/12/07 07:03:20;;;;;;;12.40;1.88;;;;;;;;;;5029695;28;21044;-70
2022/12/07 07:05:46;;;;;;;11.63;1.80;;;;;;;;;;5037543;28;20423;-70
2022/12/07 07:08:13;;;;;;;11.00;1.65;;;;;;;;;;5021294;28;20477;-72
2022/12/07 07:10:39;;;;;;;11.82;2.25;;;;;;;;;;5030395;28;20415;-71
2022/12/07 07:13:05;;;;;;;9.88;2.30;;;;;;;;;;5011590;28;20438;-71
2022/12/07 07:15:32;;;;;;;12.38;2.40;;;;;;;;;;5019655;28;20419;-71
2022/12/07 07:17:59;;;;;;;14.70;6.63;;;;;;;;;;5031545;28;20407;-70
2022/12/07 07:20:25;;;;;;;10.63;2.03;;;;;;;;;;5017358;28;20430;-71
2022/12/07 07:22:51;;;;;;;14.23;2.85;;;;;;;;;;5029736;28;20473;-71
2022/12/07 07:25:17;;;;;;;12.10;2.70;;;;;;;;;;5037024;28;20747;-71
2022/12/07 07:27:43;;;;;;;13.57;2.72;;;;;;;;;;5016050;28;20421;-71
2022/12/07 07:30:09;;;;;;;14.50;2.73;;;;;;;;;;4992180;28;20415;-71
2022/12/07 07:32:35;;;;;;;12.00;2.20;;;;;;;;;;5030015;28;20415;-71
2022/12/07 07:35:01;;;;;;;11.73;2.50;;;;;;;;;;5032416;28;21108;-72
2022/12/07 07:37:27;;;;;;;10.25;2.25;;;;;;;;;;5032081;28;20867;-80
2022/12/07 07:39:53;;;;;;;13.95;2.58;;;;;;;;;;5029090;28;20840;-81
2022/12/07 07:42:19;;;;;;;12.85;2.47;;;;;;;;;;5035237;28;20422;-81
2022/12/07 07:44:46;;;;;;;11.00;2.35;;;;;;;;;;5013527;28;20459;-81
2022/12/07 07:47:12;;;;;;;14.50;2.47;;;;;;;;;;5030793;28;20427;-80
2022/12/07 07:49:38;;;;;;;10.27;2.10;;;;;;;;;;5019690;28;20444;-80
2022/12/07 07:52:05;;;;;;;10.90;2.25;;;;;;;;;;5005007;28;20424;-79
2022/12/07 07:54:31;;;;;;;14.73;2.53;;;;;;;;;;5007866;28;20431;-79
2022/12/07 07:56:57;;;;;;;11.02;2.20;;;;;;;;;;5029140;28;20422;-80
2022/12/07 07:59:25;;;;;;;10.48;2.65;;;;;;;;;;5029301;28;20461;-79
2022/12/07 08:01:51;;;;;;;16.45;4.25;;;;;;;;;;5010238;28;20429;-80
2022/12/07 08:04:17;;;;;;;13.18;3.35;;;;;;;;;;5026880;28;20439;-79
2022/12/07 08:06:43;;;;;;;13.70;3.05;;;;;;;;;;5024250;28;20429;-79
2022/12/07 08:09:10;;;;;;;13.10;2.95;;;;;;;;;;4994796;28;20408;-79
2022/12/07 08:11:36;;;;;;;11.10;2.67;;;;;;;;;;5025014;28;20422;-81
2022/12/07 08:14:02;;;;;;;11.80;2.60;;;;;;;;;;5012134;28;20431;-79
2022/12/07 08:16:28;;;;;;;11.60;2.42;;;;;;;;;;5023904;28;20447;-80
2022/12/07 08:18:55;;;;;;;13.70;2.78;;;;;;;;;;5027160;28;20815;-81
2022/12/07 08:21:21;;;;;;;11.65;2.80;;;;;;;;;;5030166;28;20422;-82
2022/12/07 08:23:47;;;;;;;15.82;2.72;;;;;;;;;;5031218;28;20438;-80
2022/12/07 08:26:14;;;;;;;18.73;2.70;;;;;;;;;;5022236;28;20420;-81
2022/12/07 08:28:40;;;;;;;13.07;2.78;;;;;;;;;;5023340;28;20418;-80
2022/12/07 08:31:08;;;;;;;10.27;2.53;;;;;;;;;;5021102;28;20799;-79
2022/12/07 08:33:34;;;;;;;13.38;3.20;;;;;;;;;;5024174;28;20434;-80
2022/12/07 08:36:04;;;;;;;12.48;2.45;;;;;;;;;;5017153;28;20924;-80
2022/12/07 08:38:30;;;;;;;12.35;2.70;;;;;;;;;;5005727;28;20415;-80
2022/12/07 08:40:57;;;;;;;14.70;3.10;;;;;;;;;;5025508;28;20450;-81
2022/12/07 08:43:23;;;;;;;13.60;3.20;;;;;;;;;;5024994;28;20909;-80
2022/12/07 08:45:54;;;;;;;13.85;3.42;;;;;;;;;;5017832;28;20720;-79
2022/12/07 08:48:24;;;;;;;11.73;3.22;;;;;;;;;;5034792;28;20425;-79
2022/12/07 08:50:50;;;;;;;14.13;3.33;;;;;;;;;;5043546;28;20421;-80
2022/12/07 08:53:17;;;;;;;13.07;2.97;;;;;;;;;;5065891;28;20531;-79
2022/12/07 08:55:44;;;;;;;10.50;2.55;;;;;;;;;;5069603;28;20436;-78
2022/12/07 08:58:10;;;;;;;16.48;4.95;;;;;;;;;;5053214;28;20431;-79
2022/12/07 09:00:36;;;;;;;13.40;2.60;;;;;;;;;;5060088;28;20423;-79
2022/12/07 09:03:02;;;;;;;14.82;3.20;;;;;;;;;;5052240;28;20429;-81
2022/12/07 09:05:28;;;;;;;13.45;2.88;;;;;;;;;;5062822;28;20425;-79
2022/12/07 09:07:56;;;;;;;14.10;3.30;;;;;;;;;;5039717;28;20417;-80
2022/12/07 09:10:23;;;;;;;8.88;2.40;;;;;;;;;;5054131;28;20424;-79
2022/12/07 09:12:49;;;;;;;14.10;2.70;;;;;;;;;;5028495;28;20425;-79
2022/12/07 09:15:15;;;;;;;15.02;2.60;;;;;;;;;;5044631;28;20523;-79
2022/12/07 09:17:41;;;;;;;9.95;2.30;;;;;;;;;;5047707;28;20417;-79
2022/12/07 09:20:08;;;;;;;10.40;2.08;;;;;;;;;;5046962;28;20920;-79
2022/12/07 09:22:34;;;;;;;13.20;2.95;;;;;;;;;;5037760;28;20445;-79
2022/12/07 09:25:00;;;;;;;9.00;2.50;;;;;;;;;;5020667;28;20831;-79
2022/12/07 09:27:27;;;;;;;9.95;2.50;;;;;;;;;;5042293;28;20451;-79
2022/12/07 09:29:53;;;;;;;10.65;2.85;;;;;;;;;;5046876;28;20417;-79
2022/12/07 09:32:19;;;;;;;8.88;2.45;;;;;;;;;;5042073;28;20417;-80
2022/12/07 09:34:45;;;;;;;11.95;2.40;;;;;;;;;;5025968;28;20508;-81
2022/12/07 09:37:11;;;;;;;12.73;2.63;;;;;;;;;;5031019;28;20408;-81
2022/12/07 09:39:41;;;;;;;11.90;2.60;;;;;;;;;;5045508;28;20430;-81
2022/12/07 09:42:07;;;;;;;11.47;2.33;;;;;;;;;;5030744;28;20419;-80
2022/12/07 09:44:34;;;;;;;9.50;2.17;;;;;;;;;;5053561;28;20445;-80
2022/12/07 09:47:00;;;;;;;12.30;2.73;;;;;;;;;;5060109;28;20504;-80
2022/12/07 09:49:29;;;;;;;11.65;2.78;;;;;;;;;;5044723;28;20429;-81
2022/12/07 09:52:03;;;;;;;9.38;2.55;;;;;;;;;;5047685;28;20554;-80
2022/12/07 09:54:31;;;;;;;9.73;2.55;;;;;;;;;;5034224;28;20432;-79
2022/12/07 09:56:57;;;;;;;14.23;2.55;;;;;;;;;;5063951;28;20434;-80
2022/12/07 09:59:23;;;;;;;13.85;2.38;;;;;;;;;;5056430;28;20430;-81
2022/12/07 10:01:50;;;;;;;7.32;2.40;;;;;;;;;;5044227;28;20421;-80
2022/12/07 10:04:18;;;;;;;9.80;2.53;;;;;;;;;;5005995;28;20472;-80
2022/12/07 10:06:46;;;;;;;11.30;2.35;;;;;;;;;;5021282;28;20496;-80
2022/12/07 10:09:13;;;;;;;12.18;2.30;;;;;;;;;;5039309;28;20430;-80
2022/12/07 10:11:58;;;;;;;12.18;2.35;;;;;;;;;;5044245;28;20421;-79
2022/12/07 10:14:24;;;;;;;8.70;1.60;;;;;;;;;;5047045;28;20421;-81
2022/12/07 10:16:50;;;;;;;8.27;1.95;;;;;;;;;;5026772;28;20913;-80
2022/12/07 10:19:23;;;;;;;8.45;1.50;;;;;;;;;;5025958;28;20474;-78
2022/12/07 10:22:03;;;;;;;6.65;1.60;;;;;;;;;;5045084;28;20432;-81
2022/12/07 10:24:29;;;;;;;9.60;1.67;;;;;;;;;;5050180;28;20428;-80
2022/12/07 10:26:56;;;;;;;6.10;1.40;;;;;;;;;;5050181;28;20479;-81
2022/12/07 10:29:23;;;;;;;6.20;1.60;;;;;;;;;;5046289;28;20456;-80
2022/12/07 10:31:56;;;;;;;8.13;1.63;;;;;;;;;;5028641;28;20421;-80
2022/12/07 10:34:24;;;;;;;8.52;1.80;;;;;;;;;;5037470;28;20436;-80
2022/12/07 10:36:50;;;;;;;6.30;1.40;;;;;;;;;;5035346;28;20518;-80
2022/12/07 10:39:17;;;;;;;9.43;1.63;;;;;;;;;;5042317;28;20417;-80
2022/12/07 10:42:02;;;;;;;5.95;1.48;;;;;;;;;;5031235;28;20430;-80
2022/12/07 10:44:30;;;;;;;8.27;1.60;;;;;;;;;;5031251;28;20433;-80
2022/12/07 10:47:02;;;;;;;6.77;1.53;;;;;;;;;;5043537;28;20458;-80
2022/12/07 10:49:41;;;;;;;7.03;1.60;;;;;;;;;;5049773;28;20774;-80
2022/12/07 10:52:18;;;;;;;7.43;1.70;;;;;;;;;;5040515;28;20427;-79
2022/12/07 10:54:53;;;;;;;7.78;2.15;;;;;;;;;;5045153;28;20505;-79
2022/12/07 10:57:31;;;;;;;7.20;2.15;;;;;;;;;;5048129;28;20418;-79
2022/12/07 11:00:04;;;;;;;8.75;2.15;;;;;;;;;;5045992;28;20419;-79
2022/12/07 11:02:49;;;;;;;8.70;1.90;;;;;;;;;;5045556;28;20429;-79
2022/12/07 11:05:34;;;;;;;9.07;2.35;;;5.80;99.90;;;;;;5050053;28;20421;-79
2022/12/07 11:08:10;;;;;;;9.40;2.15;;;;;;;;;;5043879;28;20486;-79
2022/12/07 11:10:47;;;;;;;11.52;2.47;;;;;;;;;;5041756;28;20878;-78
2022/12/07 11:13:25;;;;;;;7.53;1.80;;;;;;;;;;5027721;28;20502;-79
2022/12/07 11:16:10;;;;;;;11.88;2.40;;;;;;;;;;5030445;28;20425;-79
2022/12/07 11:18:46;;;;;;;8.27;1.40;;;;;;;;;;5049135;28;20416;-79
2022/12/07 11:21:31;;;;;;;5.95;1.65;;;;;;;;;;5050428;28;20494;-80
2022/12/07 11:24:02;;;;;;;8.20;1.90;;;;;;;;;;5047299;28;20421;-79
2022/12/07 11:26:52;;;;;;;8.07;1.60;;;;;;;;;;5044058;28;20421;-80
2022/12/07 11:29:29;;;;;;;8.05;2.00;;;;;;;;;;5040496;28;20429;-79
2022/12/07 11:31:56;;;;;;;6.70;1.73;;;;;;;;;;5044268;28;20495;-80
2022/12/07 11:34:45;;;;;;;5.93;1.60;;;;;;;;;;5034286;28;21025;-80
2022/12/07 11:37:15;;;;;;;7.63;1.42;;;;;;;;;;5049881;28;20492;-80
2022/12/07 11:39:48;;;;;;;5.30;1.50;;;;;;;;;;5035773;28;20430;-79
2022/12/07 11:42:16;;;;;;;6.88;1.67;;;;;;;;;;5043314;28;20767;-78
2022/12/07 11:44:48;;;;;;;5.88;1.20;;;;;;;;;;5045431;28;20421;-79
2022/12/07 11:47:21;;;;;;;5.70;1.20;;;;;;;;;;5045387;28;20496;-79
2022/12/07 11:50:06;;;;;;;6.35;1.40;;;;;;;;;;5027577;28;20438;-78
2022/12/07 11:52:35;;;;;;;5.97;1.23;;;;;;;;;;4999884;28;20511;-78
2022/12/07 11:55:02;;;;;;;6.93;1.58;;;;;;;;;;5004241;28;20431;-79
2022/12/07 11:57:33;;;;;;;4.55;1.10;;;;;;;;;;5027769;28;20434;-78
2022/12/07 12:00:01;;;;;;;5.55;1.02;;;;;;;;;;5027914;28;20415;-78
2022/12/07 12:02:32;;;;;;;5.00;1.20;;;;;;;;;;5029720;28;20427;-79
2022/12/07 12:05:04;;;;;;;8.77;1.70;;;;;;;;;;5022959;28;20429;-78
2022/12/07 12:07:31;;;;;;;4.65;1.10;;;;;;;;;;5031846;28;20418;-79
2022/12/07 12:10:02;;;;;;;7.30;1.40;;;;;;;;;;5032595;28;20432;-79
2022/12/07 12:12:41;;;;;;;3.60;0.98;;;;;;;;;;5043706;28;20522;-78
2022/12/07 12:15:21;;;;;;;4.35;1.10;;;;;;;;;;5022102;28;20948;-79
2022/12/07 12:18:06;;;;;;;5.68;1.15;;;;;;;;;;5024988;28;20419;-79
2022/12/07 12:20:41;;;;;;;4.95;1.23;;;;;;;;;;5031673;28;20427;-79
2022/12/07 12:23:07;;;;;;;3.67;0.98;;;;;;;;;;5032246;28;20427;-80
2022/12/07 12:25:42;;;;;;;3.70;1.00;;;;;;;;;;5037961;28;20510;-79
2022/12/07 12:28:19;;;;;;;5.03;1.15;;;;;;;;;;5026139;28;20419;-81
2022/12/07 12:30:45;;;;;;;5.90;1.20;;;;;;;;;;5008913;28;20433;-81
2022/12/07 12:33:22;;;;;;;5.05;1.20;;;;;;;;;;5018035;28;20467;-81
2022/12/07 12:36:08;;;;;;;4.65;1.40;;;;;;;;;;5003089;28;20456;-81
2022/12/07 12:38:48;;;;;;;6.53;1.40;;;;;;;;;;5007679;28;20502;-82
2022/12/07 12:41:33;;;;;;;6.00;1.30;;;;;;;;;;5020350;28;20489;-81
2022/12/07 12:43:59;;;;;;;5.40;1.10;;;;;;;;;;5022323;28;20438;-80
2022/12/07 12:46:33;;;;;;;2.93;1.20;;;;;;;;;;5000265;28;20409;-81
2022/12/07 12:49:21;;;;;;;4.40;1.50;;;;;;;;;;5008114;28;20443;-82
2022/12/07 12:51:53;;;;;;;6.10;1.20;;;;;;;;;;5022900;28;20481;-82
2022/12/07 12:54:25;;;;;;;5.28;1.27;;;;;;;;;;5020608;28;20931;-82
2022/12/07 12:57:10;;;;;;;4.30;1.33;;;;;;;;;;5012427;28;20756;-81
2022/12/07 12:59:37;;;;;;;4.90;1.13;;;;;;;;;;5024671;28;20415;-81
2022/12/07 13:02:03;;;;;;;3.75;0.98;;;;;;;;;;5027731;28;20481;-79
2022/12/07 13:04:48;;;;;;;5.25;1.10;;;;;;;;;;5029540;28;20557;-80
2022/12/07 13:07:34;;;;;;;6.05;1.10;;;;;;;;;;5022491;28;20439;-80
2022/12/07 13:10:00;;;;;;;7.43;1.98;;;;;;;;;;5029557;28;20425;-80
2022/12/07 13:12:26;;;;;;;7.05;1.70;;;;;;;;;;5028641;28;20427;-80
2022/12/07 13:14:54;;;;;;;4.50;1.30;;;;;;;;;;5029651;28;20829;-80
2022/12/07 13:17:33;;;;;;;5.03;1.20;;;;;;;;;;5023185;28;20504;-71
2022/12/07 13:20:02;;;;;;;8.15;1.80;;;;;;;;;;5027642;28;20468;-70
2022/12/07 13:22:31;;;;;;;5.28;2.08;;;;;;;;;;5010901;28;20427;-70
2022/12/07 13:24:57;;;;;;;6.13;1.55;;;;;;;;;;5002975;28;20438;-71
2022/12/07 13:27:25;;;;;;;5.75;1.70;;;;;;;;;;5024359;28;20427;-71
2022/12/07 13:29:52;;;;;;;5.10;1.27;;;;;;;;;;5010347;28;20461;-71
2022/12/07 13:32:24;;;;;;;5.88;1.40;;;;;;;;;;5015103;28;20432;-71
2022/12/07 13:34:50;;;;;;;6.63;1.50;;;;;;;;;;5027868;28;20931;-71
2022/12/07 13:37:31;;;;;;;7.78;2.20;;;;;;;;;;5009987;28;20418;-71
2022/12/07 13:40:00;;;;;;;5.57;1.57;;;;;;;;;;5002133;28;21009;-71
2022/12/07 13:42:28;;;;;;;8.05;1.75;;;;;;;;;;5031341;28;20461;-71
2022/12/07 13:44:54;;;;;;;8.57;1.85;;;;;;;;;;5025666;28;20435;-71
2022/12/07 13:47:24;;;;;;;6.53;1.52;;;;;;;;;;5027664;28;20422;-71
2022/12/07 13:49:51;;;;;;;8.05;1.48;;;;;;;;;;5028716;28;20474;-71
2022/12/07 13:52:18;;;;;;;5.05;1.42;;;;;;;;;;5030716;28;20424;-72
2022/12/07 13:54:49;;;;;;;8.27;1.58;;;;;;;;;;5047325;28;20510;-70
2022/12/07 13:57:16;;;;;;;5.40;1.45;;;;;;;;;;5032685;28;20430;-71
2022/12/07 13:59:42;;;;;;;7.57;1.70;;;;;;;;;;5039287;28;20411;-71
2022/12/07 14:02:38;;;;;;;6.53;1.90;;;;;;;;;;5055933;28;20404;-71
2022/12/07 14:05:08;;;;;;;5.75;1.67;;;;;;;;;;5035044;28;20828;-71
2022/12/07 14:07:36;;;;;;;5.85;1.40;;;;;;;;;;5052982;28;20548;-71
2022/12/07 14:10:06;;;;;;;5.55;1.50;;;;;;;;;;5055507;28;20955;-70
2022/12/07 14:12:33;;;;;;;5.50;2.05;;;;;;;;;;5045817;28;20431;-71
2022/12/07 14:15:01;;;;;;;5.07;1.70;;;;;;;;;;5067595;28;20428;-71
2022/12/07 14:17:27;;;;;;;7.93;1.70;;;;;;;;;;5052484;28;20411;-71
2022/12/07 14:19:55;;;;;;;6.28;1.52;;;;;;;;;;5046340;28;20419;-70
2022/12/07 14:22:21;;;;;;;5.55;1.30;;;;;;;;;;5047280;28;20554;-71
2022/12/07 14:24:47;;;;;;;5.60;1.50;;;;;;;;;;5045248;28;20458;-72
2022/12/07 14:27:25;;;;;;;5.38;1.40;;;;;;;;;;5043088;28;20502;-72
2022/12/07 14:29:52;;;;;;;8.10;1.60;;;;;;;;;;5043653;28;20464;-71
2022/12/07 14:32:20;;;;;;;5.73;1.20;;;;;;;;;;5047954;28;20419;-72
2022/12/07 14:35:04;;;;;;;7.78;1.70;;;;;;;;;;5052255;28;20821;-72
2022/12/07 14:37:30;;;;;;;7.15;1.60;;;;;;;;;;5028116;28;20515;-73
2022/12/07 14:39:57;;;;;;;7.55;2.00;;;;;;;;;;5029087;28;20506;-70
2022/12/07 14:42:24;;;;;;;10.82;2.67;;;;;;;;;;5045412;28;20931;-72
2022/12/07 14:44:50;;;;;;;8.27;2.03;;;;;;;;;;5047214;28;20427;-71
2022/12/07 14:47:16;;;;;;;7.47;2.05;;;;;;;;;;5046577;28;20455;-71
2022/12/07 14:49:42;;;;;;;6.63;1.90;;;;;;;;;;5037517;28;20431;-71
2022/12/07 14:52:13;;;;;;;6.88;2.42;;;;;;;;;;5046102;28;20512;-72